Time;durP1;ratioP1;P1;durP2;ratioP2;P2;SDS_P1;SDS_P2;PMS_P1;PMS_P2;Temp;Humidity;BMP_temperature;BMP_pressure;BME280_temperature;BME280_humidity;BME280_pressure;Samples;Min_cycle;Max_cycle;Signal;HPM_P1;HPM_P2
2022/01/25 00:09:33;;;;;;;6.78;4.55;;;;;;;1.18;55.44;100885.37;1721400;82;21517;-53
2022/01/25 00:28:22;;;;;;;7.28;5.10;;;;;;;1.16;54.97;100878.86;1699707;82;21526;-53
2022/01/25 00:31:00;;;;;;;9.18;4.70;;;;;;;1.12;55.15;100870.17;1694267;83;22380;-53
2022/01/25 00:33:16;;;;;;;6.70;4.42;;;;;;;1.12;55.38;100871.89;1700483;82;20886;-53
2022/01/25 00:35:42;;;;;;;6.03;4.83;;;;;;;1.10;55.30;100871.86;1692509;82;21474;-53
2022/01/25 00:38:09;;;;;;;7.13;4.60;;;;;;;1.14;55.38;100870.20;1703890;83;22211;-54
2022/01/25 00:40:36;;;;;;;5.47;4.15;;;;;;;1.09;54.98;100870.14;1688200;83;21543;-53
2022/01/25 00:43:03;;;;;;;6.37;4.83;;;;;;;1.02;54.96;100866.11;1696216;82;22650;-53
2022/01/25 00:45:30;;;;;;;6.58;4.75;;;;;;;0.97;55.03;100869.50;1700929;82;21507;-54
2022/01/25 00:47:57;;;;;;;6.83;4.75;;;;;;;0.96;55.11;100860.41;1703573;83;21496;-54
2022/01/25 00:50:24;;;;;;;7.10;4.87;;;;;;;1.00;55.34;100860.92;1697231;83;21508;-53
2022/01/25 00:53:55;;;;;;;5.80;4.60;;;;;;;1.03;55.20;100858.80;1695457;83;20973;-53
2022/01/25 00:55:20;;;;;;;7.42;5.08;;;;;;;1.03;55.30;100854.91;1690251;82;22220;-54
2022/01/25 00:57:46;;;;;;;7.35;5.05;;;;;;;0.98;55.15;100856.15;1702589;83;21496;-53
2022/01/25 01:00:14;;;;;;;4.25;3.17;;;;;;;0.93;55.08;100855.20;1703048;83;21582;-53
2022/01/25 01:02:40;;;;;;;7.40;4.85;;;;;;;0.86;55.31;100859.39;1692647;83;29145;-53
2022/01/25 01:05:08;;;;;;;7.42;5.30;;;;;;;0.82;55.09;100861.49;1692242;82;21375;-53
2022/01/25 01:07:35;;;;;;;8.30;4.95;;;;;;;0.81;55.31;100851.10;1700438;82;22268;-53
2022/01/25 01:10:04;;;;;;;5.78;4.55;;;;;;;0.87;55.48;100857.27;1692082;83;21434;-53
2022/01/25 01:15:19;;;;;;;7.08;5.25;;;;;;;0.85;55.57;100853.78;1701221;82;21431;-53
2022/01/25 01:31:13;;;;;;;6.95;4.72;;;;;;;0.98;55.04;100861.33;1700471;83;21470;-53
2022/01/25 01:36:53;;;;;;;8.28;5.60;;;;;;;0.16;58.96;100865.50;1794509;78;23012;-54
2022/01/25 01:44:27;;;;;;;6.33;5.00;;;;;;;1.48;53.75;100851.25;1670983;83;21676;-54
2022/01/25 01:47:06;;;;;;;6.67;4.95;;;;;;;1.52;53.54;100851.30;1718924;80;21479;-54
2022/01/25 01:49:30;;;;;;;7.75;5.08;;;;;;;1.50;53.85;100847.81;1765682;79;21340;-53
2022/01/25 01:51:57;;;;;;;6.40;4.58;;;;;;;1.42;53.32;100842.96;1764673;80;21540;-53
2022/01/25 01:54:23;;;;;;;5.87;4.73;;;;;;;1.35;53.49;100845.02;1759927;80;22465;-53
2022/01/25 01:56:50;;;;;;;6.37;4.62;;;;;;;1.29;53.47;100844.94;1766110;80;21537;-53
2022/01/25 01:59:18;;;;;;;8.15;5.35;;;;;;;1.18;53.59;100845.20;1728015;80;21097;-53
2022/01/25 02:01:46;;;;;;;5.45;4.70;;;;;;;1.09;53.83;100851.11;1765556;80;22134;-53
2022/01/25 02:04:15;;;;;;;6.70;4.60;;;;;;;1.05;53.86;100850.63;1770200;79;21433;-53
2022/01/25 02:06:41;;;;;;;7.08;5.15;;;;;;;1.05;53.99;100848.89;1766640;80;22442;-53
2022/01/25 02:09:09;;;;;;;8.20;4.83;;;;;;;1.03;54.23;100852.33;1765928;80;21367;-53
2022/01/25 02:11:36;;;;;;;6.30;4.97;;;;;;;1.03;54.24;100844.55;1754892;80;27670;-53
2022/01/25 02:14:08;;;;;;;9.08;5.37;;;;;;;1.03;54.32;100838.94;1761421;80;21479;-53
2022/01/25 02:17:02;;;;;;;8.23;4.95;;;;;;;0.98;54.27;100831.55;1763151;80;21007;-53
2022/01/25 02:24:44;;;;;;;7.70;4.95;;;;;;;0.90;54.36;100834.42;1766730;80;21392;-53
2022/01/25 02:27:11;;;;;;;6.87;5.08;;;;;;;0.83;53.92;100827.00;1767890;80;21449;-53
2022/01/25 02:29:38;;;;;;;7.62;4.83;;;;;;;0.78;54.13;100825.61;1757556;80;21425;-53
2022/01/25 02:32:06;;;;;;;8.40;5.42;;;;;;;0.70;54.03;100822.47;1759507;80;22530;-54
2022/01/25 02:34:33;;;;;;;6.97;4.87;;;;;;;0.66;54.37;100820.66;1767013;80;21755;-53
2022/01/25 02:37:08;;;;;;;6.78;4.62;;;;;;;0.61;54.30;100824.91;1691891;84;21364;-53
2022/01/25 02:39:37;;;;;;;7.83;5.22;;;;;;;0.52;53.95;100830.78;1745914;80;20985;-54
2022/01/25 02:42:06;;;;;;;7.03;4.97;;;;;;;0.50;54.23;100830.75;1746798;80;21434;-53
2022/01/25 02:44:35;;;;;;;8.58;5.35;;;;;;;0.34;54.38;100828.34;1746049;80;22457;-53
2022/01/25 02:49:33;;;;;;;6.97;5.05;;;;;;;0.55;57.61;100814.03;1754693;80;21388;-53
2022/01/25 02:52:00;;;;;;;6.90;5.10;;;;;;;0.78;56.95;100821.73;1747276;80;21479;-54
2022/01/25 02:54:27;;;;;;;7.70;5.87;;;;;;;0.72;55.16;100815.16;1749488;80;21438;-53
2022/01/25 02:56:53;;;;;;;9.35;5.97;;;;;;;0.76;55.90;100810.48;1742595;80;22830;-54
2022/01/25 02:59:20;;;;;;;8.95;6.37;;;;;;;9.56;46.99;100778.16;1754508;80;21866;-54
2022/01/25 03:01:48;;;;;;;11.43;5.78;;;;;;;9.20;41.84;100767.50;1739761;80;21685;-53
2022/01/25 03:04:15;;;;;;;;;;;;;;;9.18;41.08;100767.98;1753536;80;21518;-54
2022/01/25 03:06:43;;;;;;;9.95;6.05;;;;;;;9.13;40.38;100769.81;1751032;80;20133;-54
2022/01/25 03:09:09;;;;;;;;;;;;;;;9.07;40.21;100767.31;1763705;80;22659;-53
2022/01/25 03:11:36;;;;;;;11.75;6.50;;;;;;;9.02;39.84;100769.16;1750441;80;20636;-53
2022/01/25 03:14:06;;;;;;;10.05;6.25;;;;;;;8.92;39.90;100777.19;1746619;80;21599;-53
2022/01/25 03:16:39;;;;;;;13.35;7.03;;;;;;;8.85;39.78;100776.88;1751264;80;21479;-54
2022/01/25 03:19:29;;;;;;;8.75;6.40;;;;;;;8.80;41.56;100778.73;1744206;80;21491;-54
2022/01/25 03:21:37;;;;;;;10.95;6.90;;;;;;;8.30;40.96;100774.69;1740162;80;22273;-54
2022/01/25 03:24:05;;;;;;;9.20;5.92;;;;;;;8.13;40.96;100774.94;1744171;80;21463;-54
2022/01/25 03:26:35;;;;;;;9.25;6.58;;;;;;;8.03;41.18;100774.67;1756216;80;21576;-54
2022/01/25 03:29:03;;;;;;;10.93;6.90;;;;;;;8.09;41.17;100766.71;1688711;84;21596;-53
2022/01/25 03:31:30;;;;;;;10.35;6.42;;;;;;;7.92;42.03;100759.55;1740829;80;21471;-54
2022/01/25 03:33:56;;;;;;;10.05;6.20;;;;;;;7.80;41.40;100749.67;1744335;80;21791;-54
2022/01/25 03:36:23;;;;;;;8.43;6.12;;;;;;;7.79;41.42;100746.61;1756156;80;21383;-53
2022/01/25 03:38:50;;;;;;;11.45;6.87;;;;;;;7.69;41.38;100735.86;1758381;80;21572;-54
2022/01/25 03:41:16;;;;;;;11.22;7.40;;;;;;;7.57;41.55;100727.73;1745545;80;21472;-54
2022/01/25 03:43:50;;;;;;;11.20;6.73;;;;;;;7.42;41.78;100727.91;1766706;80;21529;-54
2022/01/25 03:46:21;;;;;;;11.12;7.50;;;;;;;7.35;41.61;100723.66;1755429;80;22911;-54
2022/01/25 03:51:07;;;;;;;12.58;7.37;;;;;;;7.13;41.81;100724.34;1755684;80;21518;-53
2022/01/25 03:53:34;;;;;;;10.78;7.30;;;;;;;4.46;46.40;100725.01;1750818;80;21394;-53
2022/01/25 03:56:01;;;;;;;16.55;8.33;;;;;;;1.43;51.98;100742.34;1764938;80;21474;-53
2022/01/25 03:58:27;;;;;;;11.63;7.53;;;;;;;0.78;59.37;100742.76;1759786;80;22344;-54
2022/01/25 04:00:54;;;;;;;11.20;7.78;;;;;;;0.64;55.93;100742.11;1752400;80;21483;-53
2022/01/25 04:03:33;;;;;;;14.63;7.72;;;;;;;0.56;55.15;100726.03;1750990;80;21567;-54
2022/01/25 04:05:53;;;;;;;11.10;7.45;;;;;;;0.35;55.27;100729.59;1755676;80;20964;-54
2022/01/25 04:08:21;;;;;;;10.20;7.25;;;;;;;0.21;58.31;100729.38;1756392;80;21435;-54
2022/01/25 04:10:47;;;;;;;10.35;6.70;;;;;;;0.02;57.01;100722.13;1754697;80;22356;-54
2022/01/25 04:13:14;;;;;;;12.30;7.67;;;;;;;0.08;56.75;100723.55;1754294;80;21478;-54
2022/01/25 04:15:45;;;;;;;11.90;7.78;;;;;;;0.02;58.42;100726.00;1770881;80;20998;-54
2022/01/25 04:18:28;;;;;;;10.93;7.53;;;;;;;0.08;56.88;100723.55;1749144;80;21574;-54
2022/01/25 04:20:43;;;;;;;12.60;7.10;;;;;;;0.10;56.99;100728.32;1742452;80;21465;-54
2022/01/25 04:25:55;;;;;;;11.08;7.45;;;;;;;0.04;56.42;100714.86;1753262;80;21474;-53
2022/01/25 04:28:22;;;;;;;17.27;9.70;;;;;;;-0.06;56.56;100724.18;1761058;80;21044;-53
2022/01/25 04:30:48;;;;;;;19.65;10.32;;;;;;;-0.08;56.39;100722.39;1759533;80;21486;-53
2022/01/25 04:33:22;;;;;;;20.65;11.65;;;;;;;-0.21;56.46;100722.59;1763142;80;21572;-53
2022/01/25 04:35:59;;;;;;;23.47;13.28;;;;;;;-0.29;56.58;100730.63;1747529;80;22392;-54
2022/01/25 04:49:29;;;;;;;10.50;6.72;;;;;;;-0.51;56.34;100720.30;1747711;80;22283;-53
2022/01/25 04:57:34;;;;;;;9.43;6.58;;;;;;;-0.63;56.50;100708.02;1748606;80;21044;-54
2022/01/25 05:02:19;;;;;;;8.68;5.58;;;;;;;-0.69;56.77;100704.89;1751312;80;21456;-54
2022/01/25 05:04:44;;;;;;;9.03;5.60;;;;;;;-0.65;56.93;100705.40;1739042;80;21400;-56
2022/01/25 05:09:49;;;;;;;8.40;5.78;;;;;;;-0.55;56.97;100704.29;1731704;80;21484;-54
2022/01/25 05:12:15;;;;;;;6.90;5.40;;;;;;;-0.54;57.11;100708.20;1741263;80;21427;-54
2022/01/25 05:14:59;;;;;;;9.00;6.35;;;;;;;-0.46;57.42;100702.75;1746790;80;22304;-54
2022/01/25 05:17:22;;;;;;;8.33;6.12;;;;;;;-0.49;57.16;100704.40;1745632;80;21359;-53
2022/01/25 05:22:26;;;;;;;7.17;5.05;;;;;;;-0.58;57.24;100696.08;1754850;80;21466;-54
2022/01/25 05:24:50;;;;;;;7.47;5.37;;;;;;;-0.57;57.37;100686.17;1751897;80;21423;-53
2022/01/25 05:27:19;;;;;;;8.68;5.50;;;;;;;-0.65;57.29;100683.44;1753250;80;22359;-54
2022/01/25 05:29:46;;;;;;;5.37;4.70;;;;;;;-0.61;57.34;100683.95;1759230;80;21585;-53
2022/01/25 05:32:12;;;;;;;7.92;5.67;;;;;;;-0.63;56.69;100688.64;1751402;80;21518;-53
2022/01/25 05:34:39;;;;;;;7.05;5.17;;;;;;;-0.72;57.50;100693.63;1752777;80;21475;-53
2022/01/25 05:37:07;;;;;;;8.38;5.53;;;;;;;-0.71;57.48;100690.22;1764678;80;21643;-52
2022/01/25 05:39:36;;;;;;;7.65;5.15;;;;;;;-0.72;56.84;100688.03;1757872;80;21522;-54
2022/01/25 05:44:41;;;;;;;8.23;5.58;;;;;;;-0.72;56.60;100691.05;1755930;80;21516;-54
2022/01/25 05:47:13;;;;;;;7.72;5.47;;;;;;;-0.66;56.88;100685.98;1759141;80;21512;-53
2022/01/25 05:49:37;;;;;;;7.25;5.72;;;;;;;-0.63;57.30;100690.80;1749399;80;21480;-53
2022/01/25 05:52:06;;;;;;;7.80;5.57;;;;;;;-0.61;57.56;100684.37;1757314;80;21782;-52
2022/01/25 05:54:33;;;;;;;7.22;5.80;;;;;;;-0.50;57.49;100679.42;1749463;80;21453;-53
2022/01/25 05:56:59;;;;;;;7.45;5.45;;;;;;;-0.50;57.05;100676.84;1753252;80;20977;-53
2022/01/25 05:59:26;;;;;;;5.20;4.28;;;;;;;-0.57;56.44;100672.39;1764660;80;21010;-54
2022/01/25 06:01:53;;;;;;;6.87;5.20;;;;;;;-0.60;56.47;100677.09;1750728;80;21545;-53
2022/01/25 06:04:21;;;;;;;8.23;5.40;;;;;;;-0.64;56.83;100680.43;1762805;80;22594;-53
2022/01/25 06:06:48;;;;;;;9.23;5.83;;;;;;;-0.57;56.98;100684.87;1753939;80;21489;-53
2022/01/25 06:09:17;;;;;;;8.08;5.83;;;;;;;-0.56;56.71;100680.17;1754946;80;20961;-53
2022/01/25 06:11:44;;;;;;;7.35;5.10;;;;;;;-0.61;56.85;100683.08;1758787;80;21091;-53
2022/01/25 06:14:10;;;;;;;10.03;6.90;;;;;;;-0.46;56.84;100683.38;1752515;80;21517;-53
2022/01/25 06:16:38;;;;;;;11.25;6.62;;;;;;;-0.44;56.69;100683.41;1769050;80;22365;-52
2022/01/25 06:19:04;;;;;;;11.00;6.33;;;;;;;-0.48;56.97;100683.77;1763113;80;20917;-53
2022/01/25 06:21:31;;;;;;;11.23;6.37;;;;;;;-0.52;57.05;100676.80;1765896;80;21419;-53
2022/01/25 06:23:58;;;;;;;10.23;5.92;;;;;;;-0.52;57.09;100673.36;1750451;80;21687;-53
2022/01/25 06:26:25;;;;;;;8.00;5.57;;;;;;;-0.56;56.47;100685.34;1754712;80;21474;-53
2022/01/25 06:28:52;;;;;;;5.85;4.95;;;;;;;-0.61;56.89;100683.08;1755718;80;22375;-53
2022/01/25 06:31:18;;;;;;;6.33;4.55;;;;;;;-0.65;56.86;100666.66;1766627;80;21327;-53
2022/01/25 06:33:46;;;;;;;8.75;5.17;;;;;;;-0.63;56.93;100662.81;1751929;80;21470;-53
2022/01/25 06:36:13;;;;;;;6.75;5.12;;;;;;;-0.56;56.58;100665.97;1761183;80;21514;-53
2022/01/25 06:38:39;;;;;;;5.33;4.20;;;;;;;-0.55;56.16;100671.56;1754645;80;21739;-53
2022/01/25 06:41:07;;;;;;;7.20;5.33;;;;;;;-0.52;56.45;100669.05;1760597;80;22661;-53
2022/01/25 06:43:34;;;;;;;;;;;;;;;-0.48;56.47;100673.43;1751445;80;21461;-53
2022/01/25 06:46:03;;;;;;;7.40;4.50;;;;;;;-0.46;56.29;100671.74;1753180;80;20372;-53
2022/01/25 06:48:31;;;;;;;5.42;4.25;;;;;;;-0.51;55.85;100659.19;1754348;80;21490;-53
2022/01/25 06:50:58;;;;;;;7.65;4.60;;;;;;;-0.44;56.03;100663.59;1749340;80;21352;-53
2022/01/25 06:53:25;;;;;;;7.95;5.62;;;;;;;-0.40;55.86;100668.00;1747296;80;22409;-53
2022/01/25 06:55:52;;;;;;;6.50;5.00;;;;;;;-0.40;56.14;100655.08;1770744;80;21533;-54
2022/01/25 06:58:19;;;;;;;7.45;4.67;;;;;;;-0.34;56.12;100651.73;1756990;79;21001;-53
2022/01/25 07:00:45;;;;;;;6.57;5.10;;;;;;;-0.24;56.42;100645.00;1757048;79;21546;-53
2022/01/25 07:03:12;;;;;;;5.07;4.50;;;;;;;-0.21;56.24;100637.28;1755587;80;21638;-53
2022/01/25 07:05:39;;;;;;;8.10;5.58;;;;;;;-0.20;56.33;100636.45;1758982;80;22275;-54
2022/01/25 07:08:08;;;;;;;6.45;4.90;;;;;;;-0.22;55.74;100632.55;1753585;80;20934;-53
2022/01/25 07:10:35;;;;;;;6.92;5.30;;;;;;;-0.17;55.87;100639.10;1752907;80;22338;-53
2022/01/25 07:13:02;;;;;;;6.33;4.62;;;;;;;-0.18;55.47;100640.36;1759565;80;21533;-53
2022/01/25 07:15:30;;;;;;;6.00;5.17;;;;;;;-0.31;54.21;100636.27;1763400;80;21867;-54
2022/01/25 07:17:57;;;;;;;9.20;5.27;;;;;;;-0.37;55.37;100639.18;1722196;80;22447;-54
2022/01/25 07:20:24;;;;;;;6.72;4.83;;;;;;;-0.35;55.65;100637.48;1754471;79;21406;-53
2022/01/25 07:22:52;;;;;;;6.37;4.10;;;;;;;-0.37;55.59;100635.30;1754383;79;21411;-53
2022/01/25 07:25:19;;;;;;;4.42;4.03;;;;;;;-0.32;56.10;100634.54;1756596;79;21597;-53
2022/01/25 07:27:45;;;;;;;5.72;4.67;;;;;;;-0.24;55.47;100626.91;1758163;79;21466;-55
2022/01/25 07:30:12;;;;;;;8.13;5.20;;;;;;;-0.16;55.39;100616.70;1754670;79;22298;-54
2022/01/25 07:32:39;;;;;;;5.27;4.63;;;;;;;-0.23;55.19;100617.00;1758102;79;21442;-54
2022/01/25 07:35:06;;;;;;;6.63;4.37;;;;;;;-0.18;55.21;100621.84;1760362;80;21471;-53
2022/01/25 07:37:33;;;;;;;7.50;4.95;;;;;;;-0.18;55.09;100616.67;1754129;79;21514;-54
2022/01/25 07:40:00;;;;;;;7.10;4.70;;;;;;;-0.12;55.38;100609.44;1755493;79;21477;-54
2022/01/25 07:42:29;;;;;;;9.03;5.27;;;;;;;-0.06;55.35;100614.69;1753520;80;22568;-54
2022/01/25 07:44:56;;;;;;;6.90;4.40;;;;;;;0.11;55.61;100613.23;1746089;80;21486;-53
2022/01/25 07:47:23;;;;;;;6.03;4.95;;;;;;;0.13;54.68;100610.27;1759429;80;21553;-53
2022/01/25 07:49:49;;;;;;;6.60;4.80;;;;;;;0.17;54.77;100602.11;1756386;80;21535;-54
2022/01/25 07:52:17;;;;;;;6.75;4.58;;;;;;;0.23;54.58;100598.74;1745826;80;21466;-53
2022/01/25 07:54:43;;;;;;;7.63;4.87;;;;;;;0.15;54.18;100601.22;1750005;80;22582;-53
2022/01/25 07:57:10;;;;;;;5.35;4.25;;;;;;;0.09;54.01;100599.41;1755258;80;21415;-53
2022/01/25 07:59:37;;;;;;;6.60;4.87;;;;;;;0.03;53.96;100596.73;1762270;80;21541;-54
2022/01/25 08:02:04;;;;;;;6.55;5.35;;;;;;;0.03;54.47;100595.45;1742759;80;21497;-54
2022/01/25 08:04:32;;;;;;;7.15;5.30;;;;;;;0.08;54.36;100595.53;1751220;80;21465;-55
2022/01/25 08:06:58;;;;;;;6.90;5.25;;;;;;;0.14;54.85;100590.45;1753528;80;21787;-54
2022/01/25 08:09:25;;;;;;;6.22;5.22;;;;;;;0.22;54.25;100594.00;1744805;80;20859;-53
2022/01/25 08:11:51;;;;;;;7.92;5.50;;;;;;;0.38;54.22;100591.23;1753187;80;21490;-54
2022/01/25 08:14:19;;;;;;;8.83;5.63;;;;;;;0.37;54.09;100588.17;1755233;79;21584;-54
2022/01/25 08:16:49;;;;;;;7.87;5.33;;;;;;;0.15;52.46;100588.28;1745268;80;21558;-54
2022/01/25 08:19:16;;;;;;;8.93;5.50;;;;;;;-0.04;52.71;100581.97;1758780;80;23779;-54
2022/01/25 08:21:43;;;;;;;10.63;5.90;;;;;;;-0.09;53.43;100576.75;1749197;80;29691;-55
2022/01/25 08:24:11;;;;;;;6.50;5.20;;;;;;;-0.12;53.85;100579.27;1744052;80;21334;-55
2022/01/25 08:26:40;;;;;;;7.35;5.53;;;;;;;-0.22;52.99;100574.81;1747993;80;21496;-55
2022/01/25 08:29:07;;;;;;;7.47;5.30;;;;;;;-0.29;53.02;100565.22;1753134;80;21347;-54
2022/01/25 08:31:34;;;;;;;8.27;5.63;;;;;;;-0.28;53.15;100561.80;1748588;80;22293;-54
2022/01/25 08:34:01;;;;;;;6.85;5.33;;;;;;;-0.33;52.64;100562.14;1745697;80;21332;-55
2022/01/25 08:36:28;;;;;;;6.60;5.47;;;;;;;-0.43;63.24;100563.72;1737810;80;21578;-54
2022/01/25 08:38:55;;;;;;;7.65;5.72;;;;;;;-0.54;65.06;100567.83;1741920;80;21485;-55
2022/01/25 08:41:22;;;;;;;8.60;5.47;;;;;;;-0.58;65.75;100570.78;1750344;80;21039;-54
2022/01/25 08:43:49;;;;;;;7.42;5.40;;;;;;;-0.68;62.81;100571.05;1744847;80;23137;-55
2022/01/25 08:46:15;;;;;;;7.90;4.80;;;;;;;-0.74;62.08;100567.04;1749036;80;21490;-54
2022/01/25 08:48:42;;;;;;;8.70;5.13;;;;;;;-0.71;63.39;100567.53;1746193;80;21481;-54
2022/01/25 08:51:09;;;;;;;7.23;5.50;;;;;;;-0.75;60.27;100545.95;1756659;80;21780;-55
2022/01/25 08:53:36;;;;;;;7.87;5.12;;;;;;;-0.75;60.27;100545.95;1738265;80;21976;-54
2022/01/25 08:56:03;;;;;;;7.05;5.28;;;;;;;-0.59;62.10;100536.73;1756353;80;21470;-54
2022/01/25 08:58:30;;;;;;;6.08;4.75;;;;;;;-0.45;61.94;100540.42;1753742;80;21431;-56
2022/01/25 09:00:56;;;;;;;7.00;5.47;;;;;;;-0.56;58.07;100539.81;1752933;80;21462;-54
2022/01/25 09:03:23;;;;;;;5.60;4.77;;;;;;;-0.48;56.20;100542.09;1741243;80;21483;-56
2022/01/25 09:05:50;;;;;;;9.08;5.28;;;;;;;-0.55;54.55;100543.69;1748023;80;21454;-54
2022/01/25 09:08:21;;;;;;;7.73;5.63;;;;;;;-0.56;54.74;100540.67;1749744;80;22639;-54
2022/01/25 09:10:46;;;;;;;7.87;5.35;;;;;;;-0.59;54.77;100537.59;1741346;80;21472;-54
2022/01/25 09:13:12;;;;;;;8.70;6.28;;;;;;;-0.55;55.21;100527.33;1753756;80;21493;-54
2022/01/25 09:15:40;;;;;;;7.70;5.72;;;;;;;-0.52;54.95;100520.50;1746836;80;21480;-55
2022/01/25 09:18:06;;;;;;;7.47;5.58;;;;;;;-0.31;54.81;100517.81;1737818;80;21518;-55
2022/01/25 09:20:35;;;;;;;7.72;5.70;;;;;;;-0.12;55.14;100514.64;1749743;80;22291;-55
2022/01/25 09:23:01;;;;;;;9.05;6.45;;;;;;;0.11;55.08;100512.38;1745344;80;21403;-54
2022/01/25 09:25:29;;;;;;;9.23;6.50;;;;;;;0.27;53.93;100504.84;1735172;80;21545;-55
2022/01/25 09:27:56;;;;;;;8.68;6.40;;;;;;;0.41;54.00;100503.70;1744052;80;21531;-54
2022/01/25 09:30:23;;;;;;;9.20;6.20;;;;;;;0.52;54.18;100503.41;1741031;80;21022;-54
2022/01/25 09:32:50;;;;;;;8.17;6.00;;;;;;;0.49;53.85;100500.78;1694639;82;22432;-54
2022/01/25 09:35:17;;;;;;;9.83;6.65;;;;;;;0.39;53.18;100498.08;1744825;80;21617;-54
2022/01/25 09:37:44;;;;;;;8.18;5.75;;;;;;;0.24;52.24;100486.69;1761565;79;21549;-54
2022/01/25 09:40:12;;;;;;;9.38;6.37;;;;;;;0.34;53.48;100489.41;1742903;80;21441;-54
2022/01/25 09:42:40;;;;;;;10.53;6.75;;;;;;;0.34;53.38;100480.77;1747549;80;21432;-54
2022/01/25 09:45:08;;;;;;;8.30;6.10;;;;;;;0.17;53.23;100482.73;1750307;80;22394;-54
2022/01/25 09:47:37;;;;;;;;;;;;;;;0.02;53.28;100482.94;1755217;80;21510;-54
2022/01/25 09:50:04;;;;;;;9.03;6.15;;;;;;;-0.22;52.59;100481.77;1756597;80;20369;-54
2022/01/25 09:52:33;;;;;;;10.55;6.87;;;;;;;-0.38;52.88;100480.66;1756427;80;20943;-55
2022/01/25 09:55:01;;;;;;;9.28;6.62;;;;;;;-0.31;53.98;100481.20;1739654;80;21502;-53
2022/01/25 09:57:28;;;;;;;;;;;;;;;-0.31;53.78;100479.05;1749616;80;22446;-55
2022/01/25 09:59:56;;;;;;;7.57;5.60;;;;;;;-0.22;53.92;100464.53;1745788;79;20697;-54
2022/01/25 10:02:51;;;;;;;8.30;6.62;;;;;;;-0.10;54.02;100459.95;1751643;79;21515;-54
2022/01/25 10:05:34;;;;;;;9.28;6.22;;;;;;;0.02;54.05;100454.09;1713921;80;21712;-54
2022/01/25 10:08:06;;;;;;;8.55;6.53;;;;;;;0.24;53.40;100450.47;1746998;79;21616;-55
2022/01/25 10:10:37;;;;;;;8.15;5.85;;;;;;;0.21;53.20;100450.02;1747815;79;22378;-54
2022/01/25 10:13:17;;;;;;;8.35;5.78;;;;;;;0.03;53.06;100449.78;1751747;80;21576;-55
2022/01/25 10:15:45;;;;;;;8.38;5.92;;;;;;;-0.21;52.84;100446.00;1741218;80;21470;-54
2022/01/25 10:18:11;;;;;;;8.23;5.60;;;;;;;-0.31;52.81;100447.59;1752029;80;21494;-55
2022/01/25 10:20:48;;;;;;;8.68;5.78;;;;;;;-0.30;53.32;100451.05;1755354;80;20867;-56
2022/01/25 10:23:30;;;;;;;8.43;5.92;;;;;;;-0.27;53.43;100449.81;1743217;80;22359;-54
2022/01/25 10:25:54;;;;;;;9.35;6.75;;;;;;;-0.22;53.24;100454.63;1747882;80;21488;-53
2022/01/25 10:28:26;;;;;;;;;;;;;;;0.06;52.33;100453.28;1748353;80;21550;-54
2022/01/25 10:30:58;;;;;;;7.72;5.85;;;;;;;0.19;52.96;100442.23;1755054;80;20776;-54
2022/01/25 10:33:38;;;;;;;9.45;6.20;;;;;;;0.44;52.95;100438.64;1746250;80;21757;-54
2022/01/25 10:36:19;;;;;;;9.75;6.45;;;;;;;0.38;51.43;100423.91;1751609;80;22414;-54
2022/01/25 10:38:49;;;;;;;8.53;6.25;;;;;;;0.21;51.72;100423.27;1709267;82;21491;-55
2022/01/25 10:41:21;;;;;;;9.40;5.97;;;;;;;0.03;52.65;100426.08;1743035;80;21549;-54
2022/01/25 10:43:49;;;;;;;7.97;5.97;;;;;;;-0.15;52.61;100418.97;1748803;80;21489;-54
2022/01/25 10:46:25;;;;;;;9.60;6.70;;;;;;;-0.11;52.84;100423.33;1741738;80;21596;-57
2022/01/25 10:49:05;;;;;;;9.58;6.83;;;;;;;-0.10;52.52;100408.67;1744510;80;22338;-54
2022/01/25 10:51:47;;;;;;;9.68;7.12;;;;;;;-0.20;52.01;100402.52;1745499;80;21589;-55
2022/01/25 10:54:20;;;;;;;11.73;6.85;;;;;;;0.03;52.49;100395.48;1748392;80;21542;-54
2022/01/25 10:57:00;;;;;;;8.33;6.05;;;;;;;0.14;53.05;100392.59;1753658;80;21571;-54
2022/01/25 10:59:29;;;;;;;9.65;6.50;;;;;;;0.07;53.03;100383.03;1758782;80;21485;-54
2022/01/25 11:02:03;;;;;;;9.53;6.00;;;;;;;0.07;52.16;100379.15;1740940;80;22284;-54
2022/01/25 11:04:35;;;;;;;12.60;7.05;;;;;;;0.13;51.54;100378.81;1740999;80;20870;-55
2022/01/25 11:07:05;;;;;;;11.33;8.00;;;;;;;0.31;52.34;100375.97;1750032;79;21487;-55
2022/01/25 11:09:44;;;;;;;10.68;7.30;;;;;;;0.34;52.77;100373.40;1748705;79;20997;-54
2022/01/25 11:12:15;;;;;;;8.98;7.00;;;;;;;0.36;52.29;100376.47;1746769;79;21517;-54
2022/01/25 11:15:00;;;;;;;9.50;7.67;;;;;;;0.46;51.82;100370.09;1750199;80;22706;-54
2022/01/25 11:17:27;;;;;;;8.98;6.53;;;;;;;1.66;50.89;100363.22;1749829;80;21438;-55
2022/01/25 11:19:54;;;;;;;9.08;6.75;;;;;;;2.47;50.46;100350.51;1743747;80;21491;-54
2022/01/25 11:22:21;;;;;;;9.35;6.58;;;;;;;2.58;49.84;100345.34;1748634;80;21578;-54
2022/01/25 11:24:54;;;;;;;11.57;7.97;;;;;;;2.59;50.29;100341.86;1756634;80;21610;-55
2022/01/25 11:27:23;;;;;;;9.93;7.35;;;;;;;2.38;49.43;100344.00;1751776;80;21746;-55
2022/01/25 11:29:52;;;;;;;8.83;6.80;;;;;;;2.32;49.53;100343.55;1742254;80;21531;-54
2022/01/25 11:32:23;;;;;;;8.15;6.40;;;;;;;2.18;49.60;100336.16;1752618;80;21494;-54
2022/01/25 11:34:50;;;;;;;10.18;7.35;;;;;;;2.04;48.80;100341.77;1750585;80;21546;-54
2022/01/25 11:37:17;;;;;;;12.13;8.13;;;;;;;1.89;50.65;100346.02;1749274;79;21533;-54
2022/01/25 11:39:49;;;;;;;9.50;6.72;;;;;;;1.79;49.38;100339.48;1729528;81;22589;-54
2022/01/25 11:42:25;;;;;;;11.53;7.47;;;;;;;1.65;49.07;100332.95;1730442;81;21438;-54
2022/01/25 11:44:54;;;;;;;10.03;6.58;;;;;;;1.40;49.70;100329.39;1704046;82;21477;-53
2022/01/25 11:47:25;;;;;;;8.13;6.10;;;;;;;1.36;49.76;100327.20;1727346;81;21126;-53
2022/01/25 11:50:03;;;;;;;10.03;6.92;;;;;;;1.47;50.80;100320.77;1731466;80;21623;-54
2022/01/25 11:52:31;;;;;;;10.23;7.35;;;;;;;1.62;50.41;100307.91;1723500;81;26743;-54
2022/01/25 11:55:26;;;;;;;7.30;4.60;;;;;;;1.55;49.39;100297.92;1728810;81;21467;-53
2022/01/25 11:57:57;;;;;;;10.30;6.58;;;;;;;1.61;48.86;100297.52;1712264;81;21576;-54
2022/01/25 12:00:49;;;;;;;11.28;7.92;;;;;;;1.82;48.55;100293.70;1735571;81;21530;-54
2022/01/25 12:03:31;;;;;;;8.63;6.70;;;;;;;2.19;48.44;100287.31;1730471;81;21426;-54
2022/01/25 12:06:04;;;;;;;8.68;6.37;;;;;;;2.14;48.61;100277.34;1717263;81;21486;-54
2022/01/25 12:08:52;;;;;;;10.43;7.55;;;;;;;2.38;48.84;100271.33;1722642;81;21296;-54
2022/01/25 12:11:36;;;;;;;10.82;7.17;;;;;;;2.47;48.77;100269.18;1721027;82;21418;-54
2022/01/25 12:14:42;;;;;;;8.20;6.60;;;;;;;2.41;48.79;100266.56;1728529;81;21522;-55
2022/01/25 12:17:18;;;;;;;9.45;6.55;;;;;;;2.16;48.93;100266.53;1724758;81;20930;-54
2022/01/25 12:19:57;;;;;;;9.43;6.35;;;;;;;1.82;49.28;100267.77;1689649;83;22364;-54
2022/01/25 12:22:42;;;;;;;8.95;6.85;;;;;;;1.46;48.51;100262.89;1729450;80;21572;-54
2022/01/25 12:25:31;;;;;;;8.48;6.95;;;;;;;1.48;49.41;100263.76;1722309;81;20931;-55
2022/01/25 12:28:07;;;;;;;9.70;7.05;;;;;;;1.34;49.00;100257.67;1726229;81;21387;-54
2022/01/25 12:30:39;;;;;;;10.53;8.03;;;;;;;1.12;49.21;100257.98;1732345;80;21499;-54
2022/01/25 12:33:27;;;;;;;12.40;7.55;;;;;;;1.05;49.81;100257.50;1715527;80;22368;-54
2022/01/25 12:36:00;;;;;;;11.08;7.05;;;;;;;0.80;49.56;100247.00;1735567;81;21135;-54
2022/01/25 12:38:41;;;;;;;11.80;8.00;;;;;;;0.64;50.19;100243.45;1733912;80;20914;-54
2022/01/25 12:41:20;;;;;;;11.97;7.60;;;;;;;0.54;50.51;100235.16;1735918;80;21219;-54
2022/01/25 12:43:58;;;;;;;17.30;8.28;;;;;;;0.48;50.75;100228.66;1734422;82;21524;-54
2022/01/25 12:46:28;;;;;;;11.22;7.85;;;;;;;0.50;51.31;100235.56;1721012;82;22448;-55
2022/01/25 13:52:53;;;;;;;23.75;10.25;;;;;;;-0.28;52.30;100191.80;1782786;79;23041;-54
2022/01/25 13:55:20;;;;;;;17.67;10.15;;;;;;;-0.28;52.30;100191.80;1762392;80;21683;-55
2022/01/25 13:57:47;;;;;;;13.03;9.15;;;;;;;-0.30;52.02;100188.73;1760287;80;22816;-55
2022/01/25 14:00:15;;;;;;;20.05;12.05;;;;;;;-0.23;52.69;100187.95;1757271;79;21057;-56
2022/01/25 14:02:42;;;;;;;18.55;10.50;;;;;;;-0.21;52.94;100180.67;1730765;80;21474;-55
2022/01/25 14:05:09;;;;;;;27.80;13.60;;;;;;;-0.19;52.66;100176.78;1754077;80;20995;-55
2022/01/25 14:07:38;;;;;;;18.73;10.95;;;;;;;-0.10;53.46;100182.48;1758312;80;21410;-53
2022/01/25 14:10:07;;;;;;;20.65;11.73;;;;;;;-0.08;52.77;100179.48;1765821;80;22854;-53
2022/01/25 14:23:48;;;;;;;20.43;10.75;;;;;;;0.15;53.20;100153.81;1700982;82;22490;-55